sensor_id;sensor_type;location;lat;lon;timestamp;pressure;altitude;pressure_sealevel;temperature;humidity
38033;BME280;23841;48.524;1.342;2023-04-30T00:00:48;99624.38;;;17.23;53.18
38033;BME280;23841;48.524;1.342;2023-04-30T00:03:13;99620.84;;;17.23;52.93
38033;BME280;23841;48.524;1.342;2023-04-30T00:05:39;99622.69;;;17.21;53.02
38033;BME280;23841;48.524;1.342;2023-04-30T00:08:05;99623.69;;;17.18;53.04
38033;BME280;23841;48.524;1.342;2023-04-30T00:10:30;99629.00;;;17.20;52.88
38033;BME280;23841;48.524;1.342;2023-04-30T00:12:55;99625.44;;;17.19;52.86
38033;BME280;23841;48.524;1.342;2023-04-30T00:15:21;99621.00;;;17.18;52.95
38033;BME280;23841;48.524;1.342;2023-04-30T00:17:46;99622.84;;;17.18;52.87
38033;BME280;23841;48.524;1.342;2023-04-30T00:20:12;99622.91;;;17.16;52.77
38033;BME280;23841;48.524;1.342;2023-04-30T00:22:38;99606.97;;;17.12;52.89
38033;BME280;23841;48.524;1.342;2023-04-30T00:25:03;99614.09;;;17.13;52.52
38033;BME280;23841;48.524;1.342;2023-04-30T00:27:30;99606.06;;;17.13;52.63
38033;BME280;23841;48.524;1.342;2023-04-30T00:29:59;99610.63;;;17.11;52.60
38033;BME280;23841;48.524;1.342;2023-04-30T00:32:27;99609.66;;;17.12;52.89
38033;BME280;23841;48.524;1.342;2023-04-30T00:34:52;99607.06;;;17.10;52.73
38033;BME280;23841;48.524;1.342;2023-04-30T00:37:18;99600.00;;;17.08;52.86
38033;BME280;23841;48.524;1.342;2023-04-30T00:39:44;99591.94;;;17.08;52.52
38033;BME280;23841;48.524;1.342;2023-04-30T00:42:10;99606.25;;;17.08;52.61
38033;BME280;23841;48.524;1.342;2023-04-30T00:44:35;99600.06;;;17.06;52.70
38033;BME280;23841;48.524;1.342;2023-04-30T00:47:01;99598.38;;;17.03;52.67
38033;BME280;23841;48.524;1.342;2023-04-30T00:49:26;99594.97;;;17.00;52.60
38033;BME280;23841;48.524;1.342;2023-04-30T00:51:53;99603.81;;;17.02;52.77
38033;BME280;23841;48.524;1.342;2023-04-30T00:54:19;99604.72;;;17.02;52.48
38033;BME280;23841;48.524;1.342;2023-04-30T00:56:45;99597.59;;;17.01;52.71
38033;BME280;23841;48.524;1.342;2023-04-30T00:59:12;99591.44;;;16.99;52.49
38033;BME280;23841;48.524;1.342;2023-04-30T01:01:37;99594.97;;;17.00;52.73
38033;BME280;23841;48.524;1.342;2023-04-30T01:04:03;99593.22;;;16.99;52.63
38033;BME280;23841;48.524;1.342;2023-04-30T01:06:29;99599.53;;;16.98;52.72
38033;BME280;23841;48.524;1.342;2023-04-30T01:08:54;99592.44;;;16.97;52.63
38033;BME280;23841;48.524;1.342;2023-04-30T01:16:40;99581.97;;;16.91;52.57
38033;BME280;23841;48.524;1.342;2023-04-30T01:19:37;99579.13;;;16.94;52.59
38033;BME280;23841;48.524;1.342;2023-04-30T01:22:09;99586.41;;;16.92;52.42
38033;BME280;23841;48.524;1.342;2023-04-30T01:25:00;99589.94;;;16.92;52.65
38033;BME280;23841;48.524;1.342;2023-04-30T01:27:49;99591.84;;;16.90;52.79
38033;BME280;23841;48.524;1.342;2023-04-30T01:30:17;99586.69;;;16.84;52.55
38033;BME280;23841;48.524;1.342;2023-04-30T01:32:43;99598.13;;;16.89;52.69
38033;BME280;23841;48.524;1.342;2023-04-30T01:35:08;99608.00;;;16.88;52.65
38033;BME280;23841;48.524;1.342;2023-04-30T01:38:05;99599.03;;;16.88;52.61
38033;BME280;23841;48.524;1.342;2023-04-30T01:48:51;99606.34;;;16.84;52.53
38033;BME280;23841;48.524;1.342;2023-04-30T01:51:24;99608.22;;;16.82;52.44
38033;BME280;23841;48.524;1.342;2023-04-30T01:53:56;99613.50;;;16.84;52.55
38033;BME280;23841;48.524;1.342;2023-04-30T01:56:35;99619.84;;;16.83;52.53
38033;BME280;23841;48.524;1.342;2023-04-30T01:59:05;99608.34;;;16.79;52.56
38033;BME280;23841;48.524;1.342;2023-04-30T02:01:32;99614.53;;;16.81;52.49
38033;BME280;23841;48.524;1.342;2023-04-30T02:03:58;99610.97;;;16.81;52.49
38033;BME280;23841;48.524;1.342;2023-04-30T02:06:24;99607.50;;;16.79;52.53
38033;BME280;23841;48.524;1.342;2023-04-30T02:08:54;99614.72;;;16.77;52.42
38033;BME280;23841;48.524;1.342;2023-04-30T02:11:20;99613.78;;;16.78;52.35
38033;BME280;23841;48.524;1.342;2023-04-30T02:13:49;99612.91;;;16.77;52.63
38033;BME280;23841;48.524;1.342;2023-04-30T02:16:14;99615.72;;;16.74;52.45
38033;BME280;23841;48.524;1.342;2023-04-30T02:18:40;99615.63;;;16.76;52.33
38033;BME280;23841;48.524;1.342;2023-04-30T02:21:05;99605.19;;;16.69;52.53
38033;BME280;23841;48.524;1.342;2023-04-30T02:23:30;99612.16;;;16.73;52.58
38033;BME280;23841;48.524;1.342;2023-04-30T02:25:56;99612.22;;;16.72;52.59
38033;BME280;23841;48.524;1.342;2023-04-30T02:28:21;99611.38;;;16.71;52.58
38033;BME280;23841;48.524;1.342;2023-04-30T02:30:46;99608.69;;;16.71;52.54
38033;BME280;23841;48.524;1.342;2023-04-30T02:33:12;99612.31;;;16.70;52.63
38033;BME280;23841;48.524;1.342;2023-04-30T02:35:40;99608.72;;;16.70;52.45
38033;BME280;23841;48.524;1.342;2023-04-30T02:38:05;99606.19;;;16.67;52.34
38033;BME280;23841;48.524;1.342;2023-04-30T02:40:31;99601.03;;;16.62;52.23
38033;BME280;23841;48.524;1.342;2023-04-30T02:42:56;99610.69;;;16.66;52.15
38033;BME280;23841;48.524;1.342;2023-04-30T02:45:22;99604.50;;;16.64;52.01
38033;BME280;23841;48.524;1.342;2023-04-30T02:47:47;99610.81;;;16.63;52.14
38033;BME280;23841;48.524;1.342;2023-04-30T02:50:13;99612.59;;;16.63;52.31
38033;BME280;23841;48.524;1.342;2023-04-30T02:52:38;99619.72;;;16.64;52.33
38033;BME280;23841;48.524;1.342;2023-04-30T02:55:04;99617.09;;;16.62;52.21
38033;BME280;23841;48.524;1.342;2023-04-30T02:57:30;99606.38;;;16.62;52.24
38033;BME280;23841;48.524;1.342;2023-04-30T02:59:55;99604.69;;;16.60;52.11
38033;BME280;23841;48.524;1.342;2023-04-30T03:02:21;99615.44;;;16.60;52.24
38033;BME280;23841;48.524;1.342;2023-04-30T03:04:48;99610.13;;;16.58;52.15
38033;BME280;23841;48.524;1.342;2023-04-30T03:07:13;99607.44;;;16.58;52.06
38033;BME280;23841;48.524;1.342;2023-04-30T03:09:39;99605.81;;;16.54;51.88
38033;BME280;23841;48.524;1.342;2023-04-30T03:12:04;99597.72;;;16.55;51.85
38033;BME280;23841;48.524;1.342;2023-04-30T03:14:30;99604.91;;;16.55;51.79
38033;BME280;23841;48.524;1.342;2023-04-30T03:16:55;99596.03;;;16.53;51.71
38033;BME280;23841;48.524;1.342;2023-04-30T03:19:21;99593.41;;;16.51;51.59
38033;BME280;23841;48.524;1.342;2023-04-30T03:21:50;99599.63;;;16.52;51.55
38033;BME280;23841;48.524;1.342;2023-04-30T03:24:16;99597.97;;;16.49;51.38
38033;BME280;23841;48.524;1.342;2023-04-30T03:26:41;99593.56;;;16.48;51.39
38033;BME280;23841;48.524;1.342;2023-04-30T03:29:07;99596.28;;;16.47;51.30
38033;BME280;23841;48.524;1.342;2023-04-30T03:31:33;99593.69;;;16.45;51.18
38033;BME280;23841;48.524;1.342;2023-04-30T03:33:58;99596.38;;;16.45;51.24
38033;BME280;23841;48.524;1.342;2023-04-30T03:36:23;99594.53;;;16.46;51.38
38033;BME280;23841;48.524;1.342;2023-04-30T03:38:49;99596.44;;;16.44;51.50
38033;BME280;23841;48.524;1.342;2023-04-30T03:41:14;99594.69;;;16.43;51.56
38033;BME280;23841;48.524;1.342;2023-04-30T03:43:39;99596.53;;;16.41;51.51
38033;BME280;23841;48.524;1.342;2023-04-30T03:46:05;99595.72;;;16.38;51.45
38033;BME280;23841;48.524;1.342;2023-04-30T03:48:30;99593.06;;;16.38;51.67
38033;BME280;23841;48.524;1.342;2023-04-30T03:50:56;99591.22;;;16.39;51.67
38033;BME280;23841;48.524;1.342;2023-04-30T03:53:21;99597.53;;;16.38;51.62
38033;BME280;23841;48.524;1.342;2023-04-30T03:55:48;99602.94;;;16.36;51.68
38033;BME280;23841;48.524;1.342;2023-04-30T03:58:14;99603.03;;;16.35;51.64
38033;BME280;23841;48.524;1.342;2023-04-30T04:00:40;99602.16;;;16.34;51.42
38033;BME280;23841;48.524;1.342;2023-04-30T04:03:07;99598.66;;;16.32;51.46
38033;BME280;23841;48.524;1.342;2023-04-30T04:05:32;99600.47;;;16.32;51.52
38033;BME280;23841;48.524;1.342;2023-04-30T04:07:57;99595.19;;;16.30;51.47
38033;BME280;23841;48.524;1.342;2023-04-30T04:10:23;99588.06;;;16.29;51.41
38033;BME280;23841;48.524;1.342;2023-04-30T04:12:49;99590.81;;;16.28;51.42
38033;BME280;23841;48.524;1.342;2023-04-30T04:15:14;99588.13;;;16.28;51.56
38033;BME280;23841;48.524;1.342;2023-04-30T04:17:40;99595.31;;;16.27;51.50
38033;BME280;23841;48.524;1.342;2023-04-30T04:20:06;99589.94;;;16.27;51.72
38033;BME280;23841;48.524;1.342;2023-04-30T04:22:31;99584.69;;;16.24;51.67
38033;BME280;23841;48.524;1.342;2023-04-30T04:24:57;99579.59;;;16.18;51.70
38033;BME280;23841;48.524;1.342;2023-04-30T04:27:22;99591.94;;;16.22;51.71
38033;BME280;23841;48.524;1.342;2023-04-30T04:29:47;99590.19;;;16.21;51.71
38033;BME280;23841;48.524;1.342;2023-04-30T04:32:14;99595.53;;;16.21;51.56
38033;BME280;23841;48.524;1.342;2023-04-30T04:34:39;99586.63;;;16.20;51.47
38033;BME280;23841;48.524;1.342;2023-04-30T04:37:05;99588.44;;;16.20;51.29
38033;BME280;23841;48.524;1.342;2023-04-30T04:39:30;99595.66;;;16.18;51.34
38033;BME280;23841;48.524;1.342;2023-04-30T04:41:56;99594.81;;;16.17;51.40
38033;BME280;23841;48.524;1.342;2023-04-30T04:44:22;99598.41;;;16.16;51.46
38033;BME280;23841;48.524;1.342;2023-04-30T04:46:47;99588.81;;;16.11;51.64
38033;BME280;23841;48.524;1.342;2023-04-30T04:49:14;99597.56;;;16.16;51.57
38033;BME280;23841;48.524;1.342;2023-04-30T04:51:39;99602.94;;;16.14;51.75
38033;BME280;23841;48.524;1.342;2023-04-30T04:54:05;99603.00;;;16.13;51.79
38033;BME280;23841;48.524;1.342;2023-04-30T04:56:31;99596.03;;;16.09;51.75
38033;BME280;23841;48.524;1.342;2023-04-30T04:58:57;99601.31;;;16.10;51.73
38033;BME280;23841;48.524;1.342;2023-04-30T05:01:23;99596.91;;;16.09;51.83
38033;BME280;23841;48.524;1.342;2023-04-30T05:03:48;99593.34;;;16.09;51.65
38033;BME280;23841;48.524;1.342;2023-04-30T05:06:14;99598.69;;;16.09;51.48
38033;BME280;23841;48.524;1.342;2023-04-30T05:08:39;99605.03;;;16.08;51.50
38033;BME280;23841;48.524;1.342;2023-04-30T05:11:05;99606.75;;;16.09;51.27
38033;BME280;23841;48.524;1.342;2023-04-30T05:13:33;99604.13;;;16.07;51.31
38033;BME280;23841;48.524;1.342;2023-04-30T05:15:59;99605.13;;;16.04;51.40
38033;BME280;23841;48.524;1.342;2023-04-30T05:18:24;99607.84;;;16.03;51.38
38033;BME280;23841;48.524;1.342;2023-04-30T05:20:50;99613.22;;;16.03;51.31
38033;BME280;23841;48.524;1.342;2023-04-30T05:23:15;99610.59;;;16.01;51.36
38033;BME280;23841;48.524;1.342;2023-04-30T05:25:40;99613.34;;;16.00;51.34
38033;BME280;23841;48.524;1.342;2023-04-30T05:28:06;99605.44;;;15.97;51.34
38033;BME280;23841;48.524;1.342;2023-04-30T05:30:32;99605.38;;;15.98;51.38
38033;BME280;23841;48.524;1.342;2023-04-30T05:32:57;99608.97;;;15.97;51.44
38033;BME280;23841;48.524;1.342;2023-04-30T05:35:23;99612.53;;;15.98;51.40
38033;BME280;23841;48.524;1.342;2023-04-30T05:37:49;99612.53;;;15.98;51.27
38033;BME280;23841;48.524;1.342;2023-04-30T05:40:15;99610.72;;;15.98;51.07
38033;BME280;23841;48.524;1.342;2023-04-30T05:42:41;99616.22;;;15.95;51.18
38033;BME280;23841;48.524;1.342;2023-04-30T05:45:11;99615.31;;;15.95;51.13
38033;BME280;23841;48.524;1.342;2023-04-30T05:47:39;99604.59;;;15.95;51.13
38033;BME280;23841;48.524;1.342;2023-04-30T05:50:05;99614.47;;;15.94;51.06
38033;BME280;23841;48.524;1.342;2023-04-30T05:52:30;99610.97;;;15.92;51.08
38033;BME280;23841;48.524;1.342;2023-04-30T05:54:57;99609.22;;;15.91;51.01
38033;BME280;23841;48.524;1.342;2023-04-30T05:57:22;99613.75;;;15.89;51.14
38033;BME280;23841;48.524;1.342;2023-04-30T05:59:48;99621.91;;;15.86;51.22
38033;BME280;23841;48.524;1.342;2023-04-30T06:02:13;99611.19;;;15.86;51.07
38033;BME280;23841;48.524;1.342;2023-04-30T06:04:39;99621.84;;;15.87;50.91
38033;BME280;23841;48.524;1.342;2023-04-30T06:07:04;99616.56;;;15.86;50.87
38033;BME280;23841;48.524;1.342;2023-04-30T06:09:30;99620.16;;;15.85;50.81
38033;BME280;23841;48.524;1.342;2023-04-30T06:11:55;99618.44;;;15.84;50.87
38033;BME280;23841;48.524;1.342;2023-04-30T06:14:21;99616.69;;;15.83;50.82
38033;BME280;23841;48.524;1.342;2023-04-30T06:16:47;99619.38;;;15.83;50.92
38033;BME280;23841;48.524;1.342;2023-04-30T06:19:13;99619.44;;;15.81;50.71
38033;BME280;23841;48.524;1.342;2023-04-30T06:21:38;99620.38;;;15.79;50.90
38033;BME280;23841;48.524;1.342;2023-04-30T06:24:04;99619.50;;;15.78;50.73
38033;BME280;23841;48.524;1.342;2023-04-30T06:26:31;99613.50;;;15.72;50.84
38033;BME280;23841;48.524;1.342;2023-04-30T06:28:56;99627.56;;;15.77;50.84
38033;BME280;23841;48.524;1.342;2023-04-30T06:31:22;99619.59;;;15.75;50.91
38033;BME280;23841;48.524;1.342;2023-04-30T06:33:48;99624.09;;;15.75;50.82
38033;BME280;23841;48.524;1.342;2023-04-30T06:36:14;99623.25;;;15.74;50.74
38033;BME280;23841;48.524;1.342;2023-04-30T06:38:39;99627.75;;;15.72;51.01
38033;BME280;23841;48.524;1.342;2023-04-30T06:41:06;99626.91;;;15.72;50.95
38033;BME280;23841;48.524;1.342;2023-04-30T06:43:32;99620.78;;;15.68;51.04
38033;BME280;23841;48.524;1.342;2023-04-30T06:45:57;99615.34;;;15.69;51.16
38033;BME280;23841;48.524;1.342;2023-04-30T06:48:22;99620.72;;;15.69;51.34
38033;BME280;23841;48.524;1.342;2023-04-30T06:50:48;99626.97;;;15.70;51.34
38033;BME280;23841;48.524;1.342;2023-04-30T06:53:14;99619.13;;;15.64;51.42
38033;BME280;23841;48.524;1.342;2023-04-30T06:55:44;99631.53;;;15.66;51.68
38033;BME280;23841;48.524;1.342;2023-04-30T06:58:10;99620.06;;;15.63;51.50
38033;BME280;23841;48.524;1.342;2023-04-30T07:00:36;99627.06;;;15.67;51.68
38033;BME280;23841;48.524;1.342;2023-04-30T07:03:01;99632.47;;;15.65;51.71
38033;BME280;23841;48.524;1.342;2023-04-30T07:05:29;99637.81;;;15.65;51.68
38033;BME280;23841;48.524;1.342;2023-04-30T07:07:56;99633.44;;;15.64;51.72
38033;BME280;23841;48.524;1.342;2023-04-30T07:10:21;99631.66;;;15.63;51.71
38033;BME280;23841;48.524;1.342;2023-04-30T07:12:47;99639.75;;;15.62;51.76
38033;BME280;23841;48.524;1.342;2023-04-30T07:15:13;99633.56;;;15.60;51.88
38033;BME280;23841;48.524;1.342;2023-04-30T07:17:38;99637.16;;;15.60;51.84
38033;BME280;23841;48.524;1.342;2023-04-30T07:20:07;99634.47;;;15.60;51.91
38033;BME280;23841;48.524;1.342;2023-04-30T07:22:32;99628.41;;;15.55;52.10
38033;BME280;23841;48.524;1.342;2023-04-30T07:24:58;99639.81;;;15.60;52.04
38033;BME280;23841;48.524;1.342;2023-04-30T07:27:27;99638.06;;;15.59;52.23
38033;BME280;23841;48.524;1.342;2023-04-30T07:29:53;99641.66;;;15.58;52.23
38033;BME280;23841;48.524;1.342;2023-04-30T07:32:18;99639.84;;;15.59;52.22
38033;BME280;23841;48.524;1.342;2023-04-30T07:34:44;99645.25;;;15.57;52.30
38033;BME280;23841;48.524;1.342;2023-04-30T07:37:09;99649.69;;;15.58;52.35
38033;BME280;23841;48.524;1.342;2023-04-30T07:39:35;99645.25;;;15.57;52.44
38033;BME280;23841;48.524;1.342;2023-04-30T07:42:02;99647.03;;;15.58;52.47
38033;BME280;23841;48.524;1.342;2023-04-30T07:44:28;99650.69;;;15.56;52.51
38033;BME280;23841;48.524;1.342;2023-04-30T07:46:54;99647.16;;;15.55;52.58
38033;BME280;23841;48.524;1.342;2023-04-30T07:49:19;99653.31;;;15.57;52.58
38033;BME280;23841;48.524;1.342;2023-04-30T07:51:45;99650.69;;;15.56;52.64
38033;BME280;23841;48.524;1.342;2023-04-30T07:54:11;99651.66;;;15.53;52.75
38033;BME280;23841;48.524;1.342;2023-04-30T07:56:36;99646.28;;;15.55;52.82
38033;BME280;23841;48.524;1.342;2023-04-30T07:59:02;99650.75;;;15.54;52.92
38033;BME280;23841;48.524;1.342;2023-04-30T08:01:27;99641.78;;;15.55;52.95
38033;BME280;23841;48.524;1.342;2023-04-30T08:03:53;99648.06;;;15.54;53.14
38033;BME280;23841;48.524;1.342;2023-04-30T08:06:18;99650.69;;;15.56;53.14
38033;BME280;23841;48.524;1.342;2023-04-30T08:08:44;99648.06;;;15.54;53.31
38033;BME280;23841;48.524;1.342;2023-04-30T08:11:10;99651.66;;;15.53;53.31
38033;BME280;23841;48.524;1.342;2023-04-30T08:13:36;99651.66;;;15.53;53.35
38033;BME280;23841;48.524;1.342;2023-04-30T08:16:01;99649.00;;;15.53;53.38
38033;BME280;23841;48.524;1.342;2023-04-30T08:18:28;99652.56;;;15.53;53.69
38033;BME280;23841;48.524;1.342;2023-04-30T08:20:53;99652.50;;;15.55;53.56
38033;BME280;23841;48.524;1.342;2023-04-30T08:23:18;99648.00;;;15.56;53.71
38033;BME280;23841;48.524;1.342;2023-04-30T08:25:44;99645.50;;;15.51;53.95
38033;BME280;23841;48.524;1.342;2023-04-30T08:28:09;99646.28;;;15.55;53.75
38033;BME280;23841;48.524;1.342;2023-04-30T08:30:35;99644.53;;;15.53;53.89
38033;BME280;23841;48.524;1.342;2023-04-30T08:33:00;99639.22;;;15.52;53.67
38033;BME280;23841;48.524;1.342;2023-04-30T08:35:26;99642.72;;;15.54;53.96
38033;BME280;23841;48.524;1.342;2023-04-30T08:37:53;99650.69;;;15.56;54.03
38033;BME280;23841;48.524;1.342;2023-04-30T08:40:19;99648.00;;;15.56;53.76
38033;BME280;23841;48.524;1.342;2023-04-30T08:42:49;99649.88;;;15.53;53.91
38033;BME280;23841;48.524;1.342;2023-04-30T08:45:17;99655.97;;;15.57;53.96
38033;BME280;23841;48.524;1.342;2023-04-30T08:47:44;99645.31;;;15.56;54.04
38033;BME280;23841;48.524;1.342;2023-04-30T08:50:10;99644.41;;;15.57;54.01
38033;BME280;23841;48.524;1.342;2023-04-30T08:52:36;99647.94;;;15.57;54.03
38033;BME280;23841;48.524;1.342;2023-04-30T08:55:06;99639.00;;;15.58;54.10
38033;BME280;23841;48.524;1.342;2023-04-30T08:57:31;99639.00;;;15.58;54.16
38033;BME280;23841;48.524;1.342;2023-04-30T08:59:57;99630.97;;;15.58;54.11
38033;BME280;23841;48.524;1.342;2023-04-30T09:02:22;99639.00;;;15.58;54.08
38033;BME280;23841;48.524;1.342;2023-04-30T09:04:48;99638.13;;;15.58;54.35
38033;BME280;23841;48.524;1.342;2023-04-30T09:07:14;99639.00;;;15.58;54.49
38033;BME280;23841;48.524;1.342;2023-04-30T09:09:40;99629.13;;;15.59;54.43
38033;BME280;23841;48.524;1.342;2023-04-30T09:12:18;99615.94;;;15.54;54.27
38033;BME280;23841;48.524;1.342;2023-04-30T09:15:05;99629.13;;;15.59;54.47
38033;BME280;23841;48.524;1.342;2023-04-30T09:17:31;99631.94;;;15.56;54.43
38033;BME280;23841;48.524;1.342;2023-04-30T09:20:09;99632.72;;;15.59;54.54
38033;BME280;23841;48.524;1.342;2023-04-30T09:22:36;99639.81;;;15.60;54.52
38033;BME280;23841;48.524;1.342;2023-04-30T09:25:02;99636.19;;;15.61;54.53
38033;BME280;23841;48.524;1.342;2023-04-30T09:27:28;99635.28;;;15.62;54.42
38033;BME280;23841;48.524;1.342;2023-04-30T09:29:53;99631.78;;;15.60;54.52
38033;BME280;23841;48.524;1.342;2023-04-30T09:32:18;99626.31;;;15.63;54.49
38033;BME280;23841;48.524;1.342;2023-04-30T09:34:44;99625.38;;;15.64;54.51
38033;BME280;23841;48.524;1.342;2023-04-30T09:37:10;99637.03;;;15.63;54.62
38033;BME280;23841;48.524;1.342;2023-04-30T09:39:49;99625.38;;;15.64;54.73
38033;BME280;23841;48.524;1.342;2023-04-30T09:42:16;99628.00;;;15.66;54.60
38033;BME280;23841;48.524;1.342;2023-04-30T09:44:42;99633.44;;;15.64;54.63
38033;BME280;23841;48.524;1.342;2023-04-30T09:47:12;99626.25;;;15.65;54.81
38033;BME280;23841;48.524;1.342;2023-04-30T09:49:43;99632.47;;;15.65;54.55
38033;BME280;23841;48.524;1.342;2023-04-30T09:52:09;99631.53;;;15.66;54.80
38033;BME280;23841;48.524;1.342;2023-04-30T09:54:36;99621.75;;;15.65;54.94
38033;BME280;23841;48.524;1.342;2023-04-30T09:57:02;99620.84;;;15.66;54.96
38033;BME280;23841;48.524;1.342;2023-04-30T09:59:31;99614.63;;;15.66;55.01
38033;BME280;23841;48.524;1.342;2023-04-30T10:02:00;99619.78;;;15.70;55.08
38033;BME280;23841;48.524;1.342;2023-04-30T10:04:34;99617.13;;;15.70;55.11
38033;BME280;23841;48.524;1.342;2023-04-30T10:07:15;99622.41;;;15.72;55.04
38033;BME280;23841;48.524;1.342;2023-04-30T10:09:49;99613.50;;;15.72;54.97
38033;BME280;23841;48.524;1.342;2023-04-30T10:12:21;99617.13;;;15.70;54.97
38033;BME280;23841;48.524;1.342;2023-04-30T10:14:52;99609.88;;;15.73;54.95
38033;BME280;23841;48.524;1.342;2023-04-30T10:17:21;99617.06;;;15.72;55.15
38033;BME280;23841;48.524;1.342;2023-04-30T10:19:55;99601.91;;;15.71;54.96
38033;BME280;23841;48.524;1.342;2023-04-30T10:22:22;99606.22;;;15.75;55.35
38033;BME280;23841;48.524;1.342;2023-04-30T10:24:49;99604.44;;;15.76;55.18
38033;BME280;23841;48.524;1.342;2023-04-30T10:27:16;99607.03;;;15.77;55.46
38033;BME280;23841;48.524;1.342;2023-04-30T10:29:43;99594.50;;;15.78;55.45
38033;BME280;23841;48.524;1.342;2023-04-30T10:32:10;99590.91;;;15.79;55.56
38033;BME280;23841;48.524;1.342;2023-04-30T10:37:22;99590.91;;;15.79;55.54
38033;BME280;23841;48.524;1.342;2023-04-30T10:39:50;99597.06;;;15.82;55.53
38033;BME280;23841;48.524;1.342;2023-04-30T10:42:16;99594.38;;;15.82;55.61
38033;BME280;23841;48.524;1.342;2023-04-30T10:44:42;99586.38;;;15.81;55.68
38033;BME280;23841;48.524;1.342;2023-04-30T10:47:10;99596.13;;;15.83;55.61
38033;BME280;23841;48.524;1.342;2023-04-30T10:49:36;99587.28;;;15.81;55.56
38033;BME280;23841;48.524;1.342;2023-04-30T10:52:03;99588.00;;;15.85;55.49
38033;BME280;23841;48.524;1.342;2023-04-30T10:54:34;99591.59;;;15.85;55.39
38033;BME280;23841;48.524;1.342;2023-04-30T11:02:39;99583.50;;;15.87;55.67
38033;BME280;23841;48.524;1.342;2023-04-30T11:07:31;99584.28;;;15.89;55.67
38033;BME280;23841;48.524;1.342;2023-04-30T11:09:57;99580.69;;;15.90;55.68
38033;BME280;23841;48.524;1.342;2023-04-30T11:12:25;99578.88;;;15.91;55.85
38033;BME280;23841;48.524;1.342;2023-04-30T11:15:24;99579.75;;;15.91;55.77
38033;BME280;23841;48.524;1.342;2023-04-30T11:17:50;99570.78;;;15.92;55.70
38033;BME280;23841;48.524;1.342;2023-04-30T11:20:20;99573.47;;;15.92;55.85
38033;BME280;23841;48.524;1.342;2023-04-30T11:22:47;99571.66;;;15.93;55.66
38033;BME280;23841;48.524;1.342;2023-04-30T11:25:13;99568.84;;;15.96;55.79
38033;BME280;23841;48.524;1.342;2023-04-30T11:27:43;99570.66;;;15.95;55.72
38033;BME280;23841;48.524;1.342;2023-04-30T11:30:16;99567.03;;;15.96;55.84
38033;BME280;23841;48.524;1.342;2023-04-30T11:32:44;99560.75;;;15.97;55.79
38033;BME280;23841;48.524;1.342;2023-04-30T11:35:12;99557.06;;;16.00;55.79
38033;BME280;23841;48.524;1.342;2023-04-30T11:37:42;99562.50;;;15.98;55.85
38033;BME280;23841;48.524;1.342;2023-04-30T11:40:10;99561.56;;;15.99;55.80
38033;BME280;23841;48.524;1.342;2023-04-30T11:42:37;99562.38;;;16.01;55.77
38033;BME280;23841;48.524;1.342;2023-04-30T11:45:09;99564.13;;;16.02;55.84
38033;BME280;23841;48.524;1.342;2023-04-30T11:47:42;99557.84;;;16.03;55.97
38033;BME280;23841;48.524;1.342;2023-04-30T11:50:09;99559.56;;;16.04;55.88
38033;BME280;23841;48.524;1.342;2023-04-30T11:52:36;99553.28;;;16.06;55.95
38033;BME280;23841;48.524;1.342;2023-04-30T11:55:21;99555.03;;;16.07;55.88
38033;BME280;23841;48.524;1.342;2023-04-30T11:57:52;99553.28;;;16.06;55.95
38033;BME280;23841;48.524;1.342;2023-04-30T12:00:28;99550.53;;;16.07;55.98
38033;BME280;23841;48.524;1.342;2023-04-30T12:02:54;99556.78;;;16.08;55.98
38033;BME280;23841;48.524;1.342;2023-04-30T12:05:22;99561.19;;;16.09;55.87
38033;BME280;23841;48.524;1.342;2023-04-30T12:07:50;99557.59;;;16.10;55.90
38033;BME280;23841;48.524;1.342;2023-04-30T12:10:20;99553.16;;;16.09;55.95
38033;BME280;23841;48.524;1.342;2023-04-30T12:12:48;99560.25;;;16.10;56.03
38033;BME280;23841;48.524;1.342;2023-04-30T12:15:19;99559.25;;;16.12;56.01
38033;BME280;23841;48.524;1.342;2023-04-30T12:17:47;99556.66;;;16.11;55.96
38033;BME280;23841;48.524;1.342;2023-04-30T12:20:14;99552.16;;;16.11;56.03
38033;BME280;23841;48.524;1.342;2023-04-30T12:22:43;99552.09;;;16.13;55.86
38033;BME280;23841;48.524;1.342;2023-04-30T12:25:15;99547.69;;;16.12;55.86
38033;BME280;23841;48.524;1.342;2023-04-30T12:27:45;99551.09;;;16.15;56.02
38033;BME280;23841;48.524;1.342;2023-04-30T12:30:12;99556.53;;;16.14;55.93
38033;BME280;23841;48.524;1.342;2023-04-30T12:32:41;99549.31;;;16.16;55.90
38033;BME280;23841;48.524;1.342;2023-04-30T12:35:11;99553.72;;;16.17;55.92
38033;BME280;23841;48.524;1.342;2023-04-30T12:37:41;99542.19;;;16.15;55.92
38033;BME280;23841;48.524;1.342;2023-04-30T12:40:07;99546.50;;;16.19;55.90
38033;BME280;23841;48.524;1.342;2023-04-30T12:42:34;99547.34;;;16.19;56.14
38033;BME280;23841;48.524;1.342;2023-04-30T12:45:00;99540.22;;;16.20;56.18
38033;BME280;23841;48.524;1.342;2023-04-30T12:47:26;99541.06;;;16.20;56.17
38033;BME280;23841;48.524;1.342;2023-04-30T12:49:51;99545.44;;;16.23;56.15
38033;BME280;23841;48.524;1.342;2023-04-30T12:52:23;99544.47;;;16.24;56.23
38033;BME280;23841;48.524;1.342;2023-04-30T12:54:49;99544.47;;;16.24;56.27
38033;BME280;23841;48.524;1.342;2023-04-30T12:57:15;99534.72;;;16.23;56.26
38033;BME280;23841;48.524;1.342;2023-04-30T13:02:20;99542.63;;;16.26;56.22
38033;BME280;23841;48.524;1.342;2023-04-30T13:04:48;99550.53;;;16.29;56.26
38033;BME280;23841;48.524;1.342;2023-04-30T13:07:14;99552.34;;;16.29;56.28
38033;BME280;23841;48.524;1.342;2023-04-30T13:09:39;99546.91;;;16.30;56.20
38033;BME280;23841;48.524;1.342;2023-04-30T13:12:05;99556.72;;;16.31;56.26
38033;BME280;23841;48.524;1.342;2023-04-30T13:14:31;99550.41;;;16.32;56.33
38033;BME280;23841;48.524;1.342;2023-04-30T13:16:58;99555.75;;;16.32;56.29
38033;BME280;23841;48.524;1.342;2023-04-30T13:19:23;99549.47;;;16.33;56.19
38033;BME280;23841;48.524;1.342;2023-04-30T13:21:49;99540.56;;;16.33;56.29
38033;BME280;23841;48.524;1.342;2023-04-30T13:24:15;99548.53;;;16.34;56.29
38033;BME280;23841;48.524;1.342;2023-04-30T13:26:42;99550.28;;;16.35;56.28